Terminal Aerodrome Forecast
Issued by NWS Denver/Boulder, CO

Home | Current Version | Previous Version | Text Only | Print | Product List | Glossary On
Versions: 1 2 3 4 5 6 7 8 9 10 11 12 13 14 15 16 17 18 19 20 21 22 23 24 25 26 27 28 29 30 31 32 33 34 35 36 37 38 39 40 41 42 43
000
FTUS45 KBOU 160446 AAB
TAFDEN
TAF AMD
KDEN 160446Z 1605/1706 27015G24KT P6SM FEW100 BKN200
     FM160500 31010KT P6SM SCT120 BKN220
     FM161300 01012KT P6SM SCT080 BKN120
     FM162200 04012KT P6SM VCSH SCT040 OVC080=

USA.gov is the U.S. government's official web portal to all federal, state and local government web resources and services.